Time;durP1;ratioP1;P1;durP2;ratioP2;P2;SDS_P1;SDS_P2;PMS_P1;PMS_P2;Temp;Humidity;BMP_temperature;BMP_pressure;BME280_temperature;BME280_humidity;BME280_pressure;Samples;Min_cycle;Max_cycle;Signal;HPM_P1;HPM_P2
2022/01/17 00:00:26;;;;;;;;;;;13.10;97.60;;;;;;5137791;27;19967;-59
2022/01/17 00:02:52;;;;;;;;;;;13.40;97.70;;;;;;5158955;27;19923;-59
2022/01/17 00:05:17;;;;;;;;;;;13.30;97.60;;;;;;5159754;27;19919;-60
2022/01/17 00:07:43;;;;;;;;;;;13.10;97.60;;;;;;5159216;27;19930;-59
2022/01/17 00:10:09;;;;;;;;;;;13.30;97.70;;;;;;5158851;27;19919;-59
2022/01/17 00:12:38;;;;;;;;;;;13.20;97.60;;;;;;5158767;27;19923;-59
2022/01/17 00:15:11;;;;;;;;;;;13.10;97.60;;;;;;5136595;27;19935;-65
2022/01/17 00:17:40;;;;;;;;;;;13.20;97.60;;;;;;5138304;27;20312;-64
2022/01/17 00:20:10;;;;;;;;;;;13.10;97.60;;;;;;5138315;27;20374;-62
2022/01/17 00:22:38;;;;;;;;;;;13.40;97.60;;;;;;5138761;27;19930;-64
2022/01/17 00:25:04;;;;;;;;;;;13.10;97.60;;;;;;5136533;27;19937;-65
2022/01/17 00:27:31;;;;;;;;;;;13.10;97.60;;;;;;5137805;27;19923;-62
2022/01/17 00:29:56;;;;;;;;;;;13.20;97.60;;;;;;5137767;27;19924;-65
2022/01/17 00:32:22;;;;;;;;;;;13.40;97.70;;;;;;5137723;27;19923;-64
2022/01/17 00:34:48;;;;;;;;;;;13.10;97.60;;;;;;5137841;27;19928;-65
2022/01/17 00:37:13;;;;;;;;;;;13.30;97.70;;;;;;5137986;27;19927;-65
2022/01/17 00:39:39;;;;;;;;;;;13.40;97.70;;;;;;5138078;27;19973;-65
2022/01/17 00:42:05;;;;;;;;;;;13.20;97.60;;;;;;5137765;27;19967;-64
2022/01/17 00:44:30;;;;;;;;;;;13.20;97.60;;;;;;5137797;27;19923;-64
2022/01/17 00:46:56;;;;;;;;;;;13.20;97.60;;;;;;5136438;27;19988;-64
2022/01/17 00:49:22;;;;;;;;;;;13.30;97.60;;;;;;5137692;27;19969;-64
2022/01/17 00:51:47;;;;;;;;;;;13.30;97.60;;;;;;5137957;27;20289;-65
2022/01/17 00:54:13;;;;;;;;;;;13.30;97.60;;;;;;5137393;27;19977;-65
2022/01/17 00:56:39;;;;;;;;;;;13.30;97.60;;;;;;5144249;27;20440;-64
2022/01/17 00:59:05;;;;;;;;;;;;;;;;;;5158224;27;19923;-66
2022/01/17 01:01:31;;;;;;;;;;;13.20;97.60;;;;;;5158187;27;19930;-64
2022/01/17 01:03:57;;;;;;;;;;;13.10;97.60;;;;;;5158089;27;19930;-65
2022/01/17 01:06:23;;;;;;;;;;;13.30;97.60;;;;;;5157748;27;19923;-64
2022/01/17 01:08:48;;;;;;;;;;;13.00;97.60;;;;;;5158043;27;19985;-64
2022/01/17 01:11:14;;;;;;;;;;;13.40;97.70;;;;;;5157559;27;20388;-65
2022/01/17 01:13:39;;;;;;;;;;;13.20;97.60;;;;;;5160857;27;19923;-65
2022/01/17 01:21:21;;;;;;;;;;;13.40;97.70;;;;;;5178347;27;19923;-65
2022/01/17 01:29:31;;;;;;;;;;;13.30;97.70;;;;;;5093809;28;20020;-65
2022/01/17 01:32:07;;;;;;;;;;;13.20;97.60;;;;;;5076033;28;19971;-62
2022/01/17 01:34:37;;;;;;;;;;;13.40;97.70;;;;;;5057841;28;19931;-63
2022/01/17 01:37:04;;;;;;;;;;;13.30;97.70;;;;;;5073226;28;19924;-65
2022/01/17 01:39:29;;;;;;;;;;;13.20;97.70;;;;;;5078787;28;19990;-64
2022/01/17 01:41:55;;;;;;;;;;;13.00;97.60;;;;;;5089925;28;19967;-64
2022/01/17 01:44:21;;;;;;;;;;;13.30;97.70;;;;;;5083818;28;20015;-59
2022/01/17 01:46:47;;;;;;;;;;;;;;;;;;5093128;28;19920;-65
2022/01/17 01:49:13;;;;;;;;;;;13.10;97.60;;;;;;5072850;28;19931;-65
2022/01/17 01:51:41;;;;;;;;;;;13.30;97.70;;;;;;5073494;28;19924;-64
2022/01/17 01:54:07;;;;;;;;;;;13.30;97.70;;;;;;5072665;28;19931;-60
2022/01/17 01:56:37;;;;;;;;;;;13.10;97.70;;;;;;5072829;28;19932;-65
2022/01/17 01:59:03;;;;;;;;;;;;;;;;;;5072737;28;19955;-64
2022/01/17 02:01:28;;;;;;;;;;;13.20;97.70;;;;;;5140463;27;19927;-59
2022/01/17 02:03:54;;;;;;;;;;;;;;;;;;5157423;27;20341;-63
2022/01/17 02:06:20;;;;;;;;;;;13.20;97.70;;;;;;5156608;27;19923;-64
2022/01/17 02:08:45;;;;;;;;;;;13.40;97.70;;;;;;5156882;27;19947;-64
2022/01/17 02:11:11;;;;;;;;;;;13.20;97.70;;;;;;5156792;27;19923;-65
2022/01/17 02:13:39;;;;;;;;;;;13.30;97.70;;;;;;5156402;27;19989;-64
2022/01/17 02:16:06;;;;;;;;;;;13.10;97.70;;;;;;5156266;27;19923;-65
2022/01/17 02:18:32;;;;;;;;;;;13.10;97.70;;;;;;5156665;27;19923;-65
2022/01/17 02:23:35;;;;;;;;;;;13.00;97.60;;;;;;5156029;27;19923;-65
2022/01/17 02:26:01;;;;;;;;;;;13.20;97.70;;;;;;5156066;27;19932;-64
2022/01/17 02:28:26;;;;;;;;;;;13.20;97.70;;;;;;5156511;27;19923;-65
2022/01/17 02:30:52;;;;;;;;;;;13.60;97.80;;;;;;5156439;27;20448;-63
2022/01/17 02:33:18;;;;;;;;;;;13.20;97.70;;;;;;5155979;27;19982;-62
2022/01/17 02:35:47;;;;;;;;;;;13.20;97.70;;;;;;5156237;27;19927;-65
2022/01/17 02:38:13;;;;;;;;;;;13.30;97.70;;;;;;5156474;27;19948;-65
2022/01/17 02:40:38;;;;;;;;;;;13.00;97.60;;;;;;5156138;27;19923;-59
2022/01/17 02:43:06;;;;;;;;;;;13.30;97.70;;;;;;5156501;27;19923;-64
2022/01/17 02:45:38;;;;;;;;;;;13.10;97.70;;;;;;5156184;27;19931;-64
2022/01/17 02:48:04;;;;;;;;;;;13.30;97.70;;;;;;5139149;27;19923;-65
2022/01/17 02:50:30;;;;;;;;;;;13.10;97.70;;;;;;5156131;27;19948;-64
2022/01/17 02:53:00;;;;;;;;;;;13.00;97.70;;;;;;5155952;27;19923;-64
2022/01/17 02:55:25;;;;;;;;;;;13.20;97.70;;;;;;5160510;27;19923;-63
2022/01/17 02:57:51;;;;;;;;;;;13.20;97.70;;;;;;5176912;27;19923;-65
2022/01/17 03:00:17;;;;;;;;;;;12.90;97.60;;;;;;5176839;27;20014;-64
2022/01/17 03:02:46;;;;;;;;;;;13.30;97.80;;;;;;5176801;27;19930;-65
2022/01/17 03:05:12;;;;;;;;;;;13.00;97.70;;;;;;5176717;27;20326;-63
2022/01/17 03:07:38;;;;;;;;;;;13.10;97.70;;;;;;5176746;27;19933;-63
2022/01/17 03:10:05;;;;;;;;;;;13.20;97.80;;;;;;5176727;27;19922;-65
2022/01/17 03:12:31;;;;;;;;;;;13.00;97.70;;;;;;5175798;27;20316;-65
2022/01/17 03:14:56;;;;;;;;;;;13.10;97.70;;;;;;5176243;27;20013;-64
2022/01/17 03:17:22;;;;;;;;;;;13.40;97.80;;;;;;5176584;27;19946;-64
2022/01/17 03:19:48;;;;;;;;;;;13.30;97.80;;;;;;5176652;27;19976;-65
2022/01/17 03:22:13;;;;;;;;;;;13.10;97.70;;;;;;5176654;27;19929;-64
2022/01/17 03:24:39;;;;;;;;;;;;;;;;;;5176457;27;19922;-64
2022/01/17 03:27:05;;;;;;;;;;;13.30;97.80;;;;;;5176586;27;19922;-64
2022/01/17 03:29:30;;;;;;;;;;;13.40;97.80;;;;;;5175307;27;20384;-65
2022/01/17 03:31:56;;;;;;;;;;;13.10;97.70;;;;;;5176562;27;19926;-65
2022/01/17 03:34:21;;;;;;;;;;;13.10;97.70;;;;;;5176069;27;19923;-64
2022/01/17 03:36:48;;;;;;;;;;;13.30;97.70;;;;;;5180374;27;19927;-64
2022/01/17 03:39:13;;;;;;;;;;;13.30;97.70;;;;;;5168031;27;19967;-64
2022/01/17 03:41:40;;;;;;;;;;;;;;;;;;5159700;27;20013;-63
2022/01/17 03:44:06;;;;;;;;;;;13.30;97.70;;;;;;5160280;27;19937;-65
2022/01/17 03:46:32;;;;;;;;;;;13.30;97.70;;;;;;5160210;27;20364;-64
2022/01/17 03:48:57;;;;;;;;;;;13.00;97.60;;;;;;5159496;27;19956;-60
2022/01/17 03:51:23;;;;;;;;;;;13.40;97.70;;;;;;5159547;27;19958;-64
2022/01/17 03:53:49;;;;;;;;;;;;;;;;;;5158962;27;20009;-62
2022/01/17 03:56:16;;;;;;;;;;;13.20;97.70;;;;;;5159480;27;20022;-65
2022/01/17 03:58:42;;;;;;;;;;;13.30;97.70;;;;;;5159987;27;19919;-64
2022/01/17 04:01:09;;;;;;;;;;;13.20;97.70;;;;;;5159338;27;19933;-64
2022/01/17 04:03:34;;;;;;;;;;;13.30;97.70;;;;;;5159889;27;19923;-65
2022/01/17 04:06:00;;;;;;;;;;;;;;;;;;5159273;27;19964;-66
2022/01/17 04:08:26;;;;;;;;;;;13.10;97.70;;;;;;5159238;27;19923;-64
2022/01/17 04:10:52;;;;;;;;;;;13.10;97.60;;;;;;5159145;27;19958;-65
2022/01/17 04:13:18;;;;;;;;;;;13.20;97.70;;;;;;5159061;27;19927;-65
2022/01/17 04:15:44;;;;;;;;;;;13.10;97.70;;;;;;5158546;27;19985;-65
2022/01/17 04:18:09;;;;;;;;;;;13.20;97.70;;;;;;5159040;27;19923;-64
2022/01/17 04:20:35;;;;;;;;;;;13.30;97.70;;;;;;5159247;27;19923;-65
2022/01/17 04:23:02;;;;;;;;;;;13.40;97.70;;;;;;5158955;27;19929;-65
2022/01/17 04:25:29;;;;;;;;;;;13.10;97.60;;;;;;5158742;27;19927;-62
2022/01/17 04:27:55;;;;;;;;;;;13.20;97.70;;;;;;5158550;27;20388;-64
2022/01/17 04:30:20;;;;;;;;;;;13.20;97.70;;;;;;5158820;27;19930;-65
2022/01/17 04:32:46;;;;;;;;;;;13.30;97.70;;;;;;5158417;27;20384;-61
2022/01/17 04:35:12;;;;;;;;;;;13.40;97.70;;;;;;5158611;27;19930;-65
2022/01/17 04:37:38;;;;;;;;;;;13.20;97.70;;;;;;5164888;27;19926;-60
2022/01/17 04:40:04;;;;;;;;;;;13.30;97.70;;;;;;5159986;27;19923;-65
2022/01/17 04:42:30;;;;;;;;;;;13.20;97.60;;;;;;5158247;27;20395;-64
2022/01/17 04:45:07;;;;;;;;;;;13.30;97.70;;;;;;5158164;27;19923;-65
2022/01/17 04:47:33;;;;;;;;;;;13.10;97.60;;;;;;5170748;27;19923;-64
2022/01/17 04:49:59;;;;;;;;;;;13.20;97.60;;;;;;5158378;27;19930;-64
2022/01/17 04:52:25;;;;;;;;;;;13.40;97.70;;;;;;5158374;27;19982;-65
2022/01/17 04:54:55;;;;;;;;;;;13.30;97.60;;;;;;5158190;27;19923;-65
2022/01/17 04:57:21;;;;;;;;;;;13.20;97.60;;;;;;5158277;27;20295;-65
2022/01/17 04:59:47;;;;;;;;;;;13.30;97.70;;;;;;5158259;27;19958;-65
2022/01/17 05:02:13;;;;;;;;;;;13.10;97.60;;;;;;5158193;27;19997;-65
2022/01/17 05:04:39;;;;;;;;;;;13.10;97.60;;;;;;5158082;27;19923;-63
2022/01/17 05:07:05;;;;;;;;;;;13.10;97.60;;;;;;5158073;27;19942;-65
2022/01/17 05:09:31;;;;;;;;;;;13.30;97.70;;;;;;5158056;27;19923;-63
2022/01/17 05:11:57;;;;;;;;;;;13.30;97.70;;;;;;5158270;27;19919;-65
2022/01/17 05:14:24;;;;;;;;;;;13.20;97.60;;;;;;5158127;27;19981;-65
2022/01/17 05:16:57;;;;;;;;;;;13.30;97.70;;;;;;5157958;27;19926;-65
2022/01/17 05:22:07;;;;;;;;;;;13.10;97.60;;;;;;5158379;27;19930;-65
2022/01/17 05:24:32;;;;;;;;;;;13.40;97.60;;;;;;5138772;27;20021;-64
2022/01/17 05:26:58;;;;;;;;;;;13.40;97.60;;;;;;5158274;27;19930;-65
2022/01/17 05:29:23;;;;;;;;;;;13.40;97.60;;;;;;5157908;27;19926;-65
2022/01/17 05:31:49;;;;;;;;;;;13.30;97.60;;;;;;5157921;27;19929;-65
2022/01/17 05:34:15;;;;;;;;;;;13.10;97.50;;;;;;5157430;27;19930;-65
2022/01/17 05:36:40;;;;;;;;;;;13.40;97.60;;;;;;5157192;27;19923;-65
2022/01/17 05:39:06;;;;;;;;;;;13.10;97.50;;;;;;5157183;27;19923;-64
2022/01/17 05:41:31;;;;;;;;;;;13.50;97.60;;;;;;5157418;27;20292;-64
2022/01/17 05:43:58;;;;;;;;;;;13.40;97.60;;;;;;5157398;27;20261;-64
2022/01/17 05:46:23;;;;;;;;;;;13.30;97.50;;;;;;5170434;27;19961;-64
2022/01/17 05:48:49;;;;;;;;;;;13.20;97.50;;;;;;5178106;27;20375;-64
2022/01/17 05:51:15;;;;;;;;;;;13.40;97.50;;;;;;5178128;27;20005;-65
2022/01/17 05:53:40;;;;;;;;;;;13.30;97.50;;;;;;5158834;27;19930;-65
2022/01/17 05:56:06;;;;;;;;;;;13.20;97.40;;;;;;5177633;27;19930;-65
2022/01/17 05:58:31;;;;;;;;;;;13.30;97.50;;;;;;5177076;27;19946;-64
2022/01/17 06:00:57;;;;;;;;;;;13.40;97.50;;;;;;5177809;27;19927;-64
2022/01/17 06:03:25;;;;;;;;;;;13.30;97.50;;;;;;5176993;27;20383;-64
2022/01/17 06:05:51;;;;;;;;;;;13.20;97.40;;;;;;5177411;27;20014;-65
2022/01/17 06:08:17;;;;;;;;;;;13.30;97.40;;;;;;5178299;27;19923;-65
2022/01/17 06:10:42;;;;;;;;;;;13.40;97.50;;;;;;5159138;27;19923;-65
2022/01/17 06:13:08;;;;;;;;;;;13.10;97.40;;;;;;5158601;27;20307;-63
2022/01/17 06:15:34;;;;;;;;;;;13.50;97.50;;;;;;5177139;27;19927;-64
2022/01/17 06:17:59;;;;;;;;;;;13.20;97.40;;;;;;5177246;27;19922;-64
2022/01/17 06:20:25;;;;;;;;;;;13.20;97.40;;;;;;5176281;27;19923;-65
2022/01/17 06:22:51;;;;;;;;;;;13.40;97.50;;;;;;5177480;27;19966;-65
2022/01/17 06:25:16;;;;;;;;;;;13.20;97.50;;;;;;5178138;27;19922;-64
2022/01/17 06:27:42;;;;;;;;;;;13.50;97.50;;;;;;5177031;27;19929;-61
2022/01/17 06:30:08;;;;;;;;;;;13.30;97.50;;;;;;5177038;27;19933;-63
2022/01/17 06:32:33;;;;;;;;;;;13.30;97.50;;;;;;5177273;27;19929;-65
2022/01/17 06:34:59;;;;;;;;;;;13.40;97.50;;;;;;5177116;27;20018;-65
2022/01/17 06:37:25;;;;;;;;;;;;;;;;;;5168451;27;20024;-63
2022/01/17 06:39:51;;;;;;;;;;;13.20;97.50;;;;;;5177168;27;19923;-65
2022/01/17 06:42:16;;;;;;;;;;;13.20;97.50;;;;;;5177125;27;19930;-64
2022/01/17 06:44:42;;;;;;;;;;;13.30;97.50;;;;;;5177069;27;19923;-65
2022/01/17 06:47:08;;;;;;;;;;;13.50;97.50;;;;;;5176721;27;19923;-59
2022/01/17 06:49:33;;;;;;;;;;;13.10;97.50;;;;;;5177006;27;19923;-64
2022/01/17 06:51:59;;;;;;;;;;;13.20;97.50;;;;;;5158467;27;19968;-64
2022/01/17 06:54:24;;;;;;;;;;;13.30;97.50;;;;;;5163302;27;19927;-63
2022/01/17 06:56:50;;;;;;;;;;;13.30;97.50;;;;;;5155945;27;19930;-65
2022/01/17 06:59:16;;;;;;;;;;;13.30;97.50;;;;;;5155708;27;19996;-60
2022/01/17 07:01:41;;;;;;;;;;;13.30;97.50;;;;;;5156269;27;19927;-65
2022/01/17 07:04:07;;;;;;;;;;;13.30;97.50;;;;;;5155890;27;19927;-65
2022/01/17 07:06:33;;;;;;;;;;;13.40;97.50;;;;;;5155979;27;19923;-66
2022/01/17 07:08:58;;;;;;;;;;;13.40;97.50;;;;;;5137285;27;19966;-64
2022/01/17 07:11:26;;;;;;;;;;;13.50;97.60;;;;;;5156099;27;19923;-64
2022/01/17 07:13:52;;;;;;;;;;;13.40;97.50;;;;;;5155868;27;19970;-65
2022/01/17 07:16:17;;;;;;;;;;;13.20;97.40;;;;;;5155363;27;20045;-63
2022/01/17 07:18:43;;;;;;;;;;;13.40;97.50;;;;;;5137282;27;19923;-65
2022/01/17 07:21:09;;;;;;;;;;;13.20;97.40;;;;;;5155443;27;20017;-63
2022/01/17 07:23:34;;;;;;;;;;;13.40;97.50;;;;;;5155410;27;19923;-64
2022/01/17 07:26:00;;;;;;;;;;;13.30;97.50;;;;;;5155564;27;19923;-64
2022/01/17 07:28:25;;;;;;;;;;;13.10;97.50;;;;;;5155939;27;19973;-65
2022/01/17 07:30:51;;;;;;;;;;;13.50;97.60;;;;;;5155396;27;19927;-65
2022/01/17 07:33:18;;;;;;;;;;;;;;;;;;5155279;27;19938;-64
2022/01/17 07:35:45;;;;;;;;;;;13.50;97.60;;;;;;5155605;27;19930;-65
2022/01/17 07:38:11;;;;;;;;;;;13.50;97.50;;;;;;5155220;27;20500;-65
2022/01/17 07:40:37;;;;;;;;;;;13.70;97.60;;;;;;5155559;27;19982;-65
2022/01/17 07:43:02;;;;;;;;;;;13.40;97.50;;;;;;5155271;27;19923;-64
2022/01/17 07:45:30;;;;;;;;;;;13.50;97.60;;;;;;5169344;27;19927;-64
2022/01/17 07:48:08;;;;;;;;;;;13.20;97.40;;;;;;5176394;27;19923;-64
2022/01/17 07:50:34;;;;;;;;;;;13.40;97.50;;;;;;5176019;27;19968;-65
2022/01/17 07:53:00;;;;;;;;;;;13.20;97.40;;;;;;5176009;27;19923;-64
2022/01/17 07:55:25;;;;;;;;;;;13.50;97.50;;;;;;5170385;27;20006;-64
2022/01/17 07:57:51;;;;;;;;;;;13.20;97.40;;;;;;5168186;27;19926;-64
2022/01/17 08:00:23;;;;;;;;;;;13.30;97.50;;;;;;5175953;27;20048;-65
2022/01/17 08:02:49;;;;;;;;;;;13.30;97.40;;;;;;5159282;27;20269;-64
2022/01/17 08:05:15;;;;;;;;;;;13.40;97.50;;;;;;5155313;27;20052;-64
2022/01/17 08:07:41;;;;;;;;;;;13.30;97.50;;;;;;5155347;27;19923;-65
2022/01/17 08:10:12;;;;;;;;;;;13.20;97.50;;;;;;5154975;27;20368;-64
2022/01/17 08:12:44;;;;;;;;;;;13.30;97.50;;;;;;5155294;27;20018;-65
2022/01/17 08:15:10;;;;;;;;;;;13.20;97.50;;;;;;5154608;27;20000;-65
2022/01/17 08:17:35;;;;;;;;;;;13.40;97.50;;;;;;5155254;27;19923;-64
2022/01/17 08:20:01;;;;;;;;;;;;;;;;;;5155743;27;20329;-64
2022/01/17 08:22:27;;;;;;;;;;;13.40;97.50;;;;;;5157835;27;19927;-62
2022/01/17 08:24:53;;;;;;;;;;;13.50;97.50;;;;;;5158792;27;19959;-65
2022/01/17 08:27:18;;;;;;;;;;;13.40;97.50;;;;;;5158848;27;19966;-64
2022/01/17 08:29:44;;;;;;;;;;;13.30;97.40;;;;;;5158531;27;20413;-63
2022/01/17 08:32:09;;;;;;;;;;;13.40;97.50;;;;;;5158502;27;19923;-64
2022/01/17 08:34:35;;;;;;;;;;;13.40;97.50;;;;;;5158556;27;19923;-64
2022/01/17 08:37:02;;;;;;;;;;;13.50;97.60;;;;;;5159106;27;19923;-63
2022/01/17 08:39:27;;;;;;;;;;;13.30;97.50;;;;;;5158648;27;19927;-64
2022/01/17 08:41:53;;;;;;;;;;;13.40;97.50;;;;;;5158541;27;20253;-65
2022/01/17 08:44:19;;;;;;;;;;;13.40;97.50;;;;;;5158222;27;19923;-64
2022/01/17 08:46:45;;;;;;;;;;;13.30;97.50;;;;;;5158484;27;19923;-64
2022/01/17 08:49:11;;;;;;;;;;;13.40;97.60;;;;;;5158133;27;19923;-65
2022/01/17 08:51:36;;;;;;;;;;;13.60;97.60;;;;;;5158417;27;19934;-64
2022/01/17 08:54:02;;;;;;;;;;;13.20;97.50;;;;;;5176842;27;19922;-64
2022/01/17 08:56:30;;;;;;;;;;;13.50;97.60;;;;;;5179236;27;19947;-64
2022/01/17 08:58:56;;;;;;;;;;;13.40;97.60;;;;;;5179169;27;19922;-64
2022/01/17 09:01:23;;;;;;;;;;;13.30;97.50;;;;;;5179152;27;20329;-64
2022/01/17 09:03:49;;;;;;;;;;;13.40;97.50;;;;;;5179035;27;19922;-65
2022/01/17 09:06:14;;;;;;;;;;;13.30;97.50;;;;;;5179048;27;19923;-64
2022/01/17 09:08:41;;;;;;;;;;;13.70;97.60;;;;;;5178714;27;20284;-64
2022/01/17 09:11:07;;;;;;;;;;;13.50;97.60;;;;;;5177710;27;19929;-64
2022/01/17 09:13:33;;;;;;;;;;;13.50;97.60;;;;;;5178819;27;19974;-64
2022/01/17 09:15:58;;;;;;;;;;;13.50;97.60;;;;;;5178286;27;20388;-64
2022/01/17 09:18:24;;;;;;;;;;;13.60;97.50;;;;;;5178809;27;19974;-64
2022/01/17 09:20:50;;;;;;;;;;;13.60;97.60;;;;;;5178468;27;19930;-64
2022/01/17 09:23:16;;;;;;;;;;;13.40;97.50;;;;;;5178668;27;20030;-65
2022/01/17 09:25:41;;;;;;;;;;;13.70;97.60;;;;;;5178225;27;20010;-62
2022/01/17 09:28:07;;;;;;;;;;;13.60;97.60;;;;;;5177712;27;19969;-62
2022/01/17 09:30:33;;;;;;;;;;;13.70;97.60;;;;;;5178551;27;20394;-62
2022/01/17 09:32:58;;;;;;;;;;;13.50;97.50;;;;;;5178482;27;19919;-65
2022/01/17 09:35:24;;;;;;;;;;;13.80;97.60;;;;;;5172837;27;20368;-58
2022/01/17 09:37:50;;;;;;;;;;;13.60;97.60;;;;;;5157472;27;19948;-59
2022/01/17 09:40:17;;;;;;;;;;;13.60;97.60;;;;;;5157394;27;19923;-61
2022/01/17 09:42:43;;;;;;;;;;;13.70;97.60;;;;;;5157723;27;19924;-63
2022/01/17 09:45:10;;;;;;;;;;;13.60;97.60;;;;;;5157923;27;19923;-61
2022/01/17 09:47:37;;;;;;;;;;;13.40;97.50;;;;;;5157284;27;19975;-63
2022/01/17 09:50:03;;;;;;;;;;;13.50;97.50;;;;;;5138510;27;19923;-59
2022/01/17 09:52:34;;;;;;;;;;;13.70;97.40;;;;;;5138472;27;19967;-64
2022/01/17 09:55:02;;;;;;;;;;;13.50;97.50;;;;;;5156675;27;20451;-63
2022/01/17 09:57:27;;;;;;;;;;;13.70;97.60;;;;;;5138398;27;19941;-64
2022/01/17 09:59:53;;;;;;;;;;;;;;;;;;5121642;27;19927;-63
2022/01/17 10:02:19;;;;;;;;;;;13.30;97.50;;;;;;5157070;27;19929;-64
2022/01/17 10:04:45;;;;;;;;;;;13.70;97.50;;;;;;5156890;27;20276;-65
2022/01/17 10:07:10;;;;;;;;;;;13.90;97.60;;;;;;5156935;27;19923;-64
2022/01/17 10:09:36;;;;;;;;;;;13.80;97.60;;;;;;5156569;27;19927;-64
2022/01/17 10:12:02;;;;;;;;;;;13.50;97.60;;;;;;5156785;27;19923;-65
2022/01/17 10:14:28;;;;;;;;;;;13.80;97.60;;;;;;5156205;27;20391;-62
2022/01/17 10:16:54;;;;;;;;;;;;;;;;;;5138597;27;19923;-65
2022/01/17 10:19:25;;;;;;;;;;;13.50;97.50;;;;;;5156735;27;20329;-64
2022/01/17 10:21:54;;;;;;;;;;;13.70;97.60;;;;;;5156693;27;19923;-64
2022/01/17 10:34:56;;;;;;;;;;;13.70;97.60;;;;;;5156772;27;19923;-64
2022/01/17 10:37:26;;;;;;;;;;;14.00;97.60;;;;;;5156016;27;19923;-64
2022/01/17 10:39:51;;;;;;;;;;;13.80;97.60;;;;;;5156293;27;20017;-64
2022/01/17 10:42:23;;;;;;;;;;;13.90;97.60;;;;;;5156242;27;20336;-64
2022/01/17 10:44:48;;;;;;;;;;;13.60;97.60;;;;;;5155501;27;19924;-64
2022/01/17 10:47:21;;;;;;;;;;;13.70;97.60;;;;;;5156215;27;19930;-64
2022/01/17 10:49:51;;;;;;;;;;;13.80;97.60;;;;;;5155932;27;19927;-65
2022/01/17 10:52:49;;;;;;;;;;;13.70;97.60;;;;;;5156437;27;19975;-64
2022/01/17 10:55:16;;;;;;;;;;;13.70;97.60;;;;;;5051785;28;19924;-64
2022/01/17 10:57:43;;;;;;;;;;;13.90;97.60;;;;;;5052636;28;19928;-65
2022/01/17 11:00:12;;;;;;;;;;;13.60;97.50;;;;;;5051838;28;19925;-64
2022/01/17 11:02:38;;;;;;;;;;;13.70;97.50;;;;;;5057828;28;19925;-65
2022/01/17 11:05:07;;;;;;;;;;;13.70;97.60;;;;;;5071903;28;19931;-62
2022/01/17 11:07:39;;;;;;;;;;;13.70;97.60;;;;;;5071801;28;19925;-64
2022/01/17 11:10:08;;;;;;;;;;;13.80;97.60;;;;;;5071595;28;20018;-64
2022/01/17 11:12:33;;;;;;;;;;;14.00;97.60;;;;;;5055103;28;20435;-65
2022/01/17 11:14:59;;;;;;;;;;;13.80;97.60;;;;;;5071442;28;19924;-64
2022/01/17 11:17:37;;;;;;;;;;;13.90;97.60;;;;;;5071720;28;19968;-65
2022/01/17 11:20:07;;;;;;;;;;;13.90;97.60;;;;;;5071654;28;19924;-64
2022/01/17 11:22:33;;;;;;;;;;;14.00;97.60;;;;;;5055432;28;19924;-64
2022/01/17 11:24:59;;;;;;;;;;;13.60;97.50;;;;;;5070616;28;20403;-64
2022/01/17 11:27:25;;;;;;;;;;;13.80;97.50;;;;;;5071633;28;20012;-64
2022/01/17 11:29:51;;;;;;;;;;;13.90;97.60;;;;;;5078703;28;20282;-65
2022/01/17 11:32:16;;;;;;;;;;;14.20;97.60;;;;;;5133665;28;19931;-64
2022/01/17 11:34:42;;;;;;;;;;;14.00;97.50;;;;;;5126566;27;19923;-63
2022/01/17 11:37:09;;;;;;;;;;;14.00;97.60;;;;;;5114381;28;19924;-64
2022/01/17 11:39:43;;;;;;;;;;;14.00;97.50;;;;;;5112924;28;19924;-64
2022/01/17 11:42:27;;;;;;;;;;;14.00;97.60;;;;;;5116233;28;19934;-64
2022/01/17 11:44:52;;;;;;;;;;;14.10;97.60;;;;;;5134612;27;19930;-64
2022/01/17 11:47:26;;;;;;;;;;;13.90;97.60;;;;;;5133301;28;19924;-66
2022/01/17 11:49:56;;;;;;;;;;;13.90;97.60;;;;;;5116455;28;19976;-64
2022/01/17 11:52:28;;;;;;;;;;;14.10;97.60;;;;;;5134822;27;20088;-65
2022/01/17 11:54:54;;;;;;;;;;;14.20;97.60;;;;;;5134330;27;19997;-64
2022/01/17 11:57:21;;;;;;;;;;;14.10;97.60;;;;;;5137392;27;20376;-65
2022/01/17 11:59:48;;;;;;;;;;;13.90;97.60;;;;;;5137530;27;19941;-62
2022/01/17 12:02:23;;;;;;;;;;;13.90;97.50;;;;;;5138745;27;19966;-64
2022/01/17 12:05:07;;;;;;;;;;;13.90;97.40;;;;;;5138509;27;19928;-65
2022/01/17 12:07:33;;;;;;;;;;;;;;;;;;5138583;27;19923;-64
2022/01/17 12:10:05;;;;;;;;;;;14.10;97.40;;;;;;5138463;27;19946;-64
2022/01/17 12:12:31;;;;;;;;;;;14.20;97.50;;;;;;5139049;27;19923;-64
2022/01/17 12:14:57;;;;;;;;;;;13.90;97.50;;;;;;5147066;27;19981;-62
2022/01/17 12:17:23;;;;;;;;;;;14.20;97.50;;;;;;5178771;27;19923;-65
2022/01/17 12:22:30;;;;;;;;;;;14.40;97.60;;;;;;5179881;27;19926;-64
2022/01/17 12:24:56;;;;;;;;;;;14.00;97.50;;;;;;5179677;27;19934;-65
2022/01/17 12:27:24;;;;;;;;;;;14.20;97.60;;;;;;5179576;27;19922;-64
2022/01/17 12:29:54;;;;;;;;;;;14.00;97.50;;;;;;5179471;27;19918;-65
2022/01/17 12:32:21;;;;;;;;;;;14.10;97.60;;;;;;5179681;27;19930;-64
2022/01/17 12:34:47;;;;;;;;;;;14.20;97.60;;;;;;5162291;27;19934;-64
2022/01/17 12:37:42;;;;;;;;;;;14.00;97.60;;;;;;5158730;27;19923;-66
2022/01/17 12:40:17;;;;;;;;;;;14.10;97.60;;;;;;5054474;28;19948;-66
2022/01/17 12:42:53;;;;;;;;;;;14.20;97.60;;;;;;5054386;28;19924;-63
2022/01/17 12:45:19;;;;;;;;;;;14.30;97.60;;;;;;5054491;28;19940;-65
2022/01/17 12:47:45;;;;;;;;;;;14.00;97.60;;;;;;5054282;28;19925;-63
2022/01/17 12:50:11;;;;;;;;;;;14.10;97.60;;;;;;5057158;28;19928;-64
2022/01/17 12:52:36;;;;;;;;;;;13.90;97.60;;;;;;5074077;28;19947;-65
2022/01/17 12:55:05;;;;;;;;;;;14.20;97.70;;;;;;5073930;28;19968;-65
2022/01/17 12:57:31;;;;;;;;;;;14.00;97.60;;;;;;5074236;28;20321;-65
2022/01/17 12:59:56;;;;;;;;;;;14.00;97.60;;;;;;5074064;28;19929;-64
2022/01/17 13:02:22;;;;;;;;;;;14.10;97.60;;;;;;5073997;28;20028;-65
2022/01/17 13:04:49;;;;;;;;;;;13.80;97.50;;;;;;5073868;28;19939;-65
2022/01/17 13:07:14;;;;;;;;;;;14.10;97.60;;;;;;5073405;28;19955;-66
2022/01/17 13:09:40;;;;;;;;;;;14.00;97.60;;;;;;5073895;28;19925;-64
2022/01/17 13:12:07;;;;;;;;;;;13.80;97.50;;;;;;5073822;28;19924;-65
2022/01/17 13:14:33;;;;;;;;;;;13.90;97.50;;;;;;5073520;28;19932;-65
2022/01/17 13:16:59;;;;;;;;;;;14.00;97.60;;;;;;5147573;27;19923;-65
2022/01/17 13:19:25;;;;;;;;;;;13.90;97.50;;;;;;5178477;27;19975;-64
2022/01/17 13:21:51;;;;;;;;;;;14.00;97.60;;;;;;5178403;27;19919;-65
2022/01/17 13:24:39;;;;;;;;;;;14.20;97.70;;;;;;5177694;27;19978;-65
2022/01/17 13:27:06;;;;;;;;;;;14.30;97.70;;;;;;5177945;27;20010;-65
2022/01/17 13:29:36;;;;;;;;;;;14.00;97.60;;;;;;5178317;27;19930;-65
2022/01/17 13:32:03;;;;;;;;;;;14.20;97.70;;;;;;5178869;27;19963;-65
2022/01/17 13:34:29;;;;;;;;;;;14.10;97.60;;;;;;5163453;27;19930;-65
2022/01/17 13:36:56;;;;;;;;;;;14.10;97.60;;;;;;5157598;27;19966;-64
2022/01/17 13:39:22;;;;;;;;;;;14.00;97.70;;;;;;5157514;27;19931;-64
2022/01/17 13:41:50;;;;;;;;;;;14.40;97.70;;;;;;5158036;27;19973;-65
2022/01/17 13:44:25;;;;;;;;;;;14.20;97.70;;;;;;5157068;27;20010;-64
2022/01/17 13:46:55;;;;;;;;;;;14.00;97.60;;;;;;5157710;27;20318;-65
2022/01/17 13:49:21;;;;;;;;;;;14.50;97.70;;;;;;5157344;27;20440;-65
2022/01/17 13:51:47;;;;;;;;;;;14.30;97.70;;;;;;5157305;27;19962;-65
2022/01/17 13:54:31;;;;;;;;;;;14.10;97.60;;;;;;5157025;27;19948;-64
2022/01/17 13:56:57;;;;;;;;;;;14.20;97.60;;;;;;5138362;27;19927;-65
2022/01/17 13:59:23;;;;;;;;;;;14.20;97.60;;;;;;5139316;27;19919;-65
2022/01/17 14:01:49;;;;;;;;;;;14.00;97.50;;;;;;5156776;27;20027;-65
2022/01/17 14:04:18;;;;;;;;;;;14.30;97.60;;;;;;5156690;27;20414;-64
2022/01/17 14:06:44;;;;;;;;;;;14.00;97.40;;;;;;5156967;27;19968;-63
2022/01/17 14:09:10;;;;;;;;;;;14.30;97.50;;;;;;5168090;27;20333;-65
2022/01/17 14:11:40;;;;;;;;;;;14.10;97.40;;;;;;5157982;27;19926;-64
2022/01/17 14:14:14;;;;;;;;;;;14.00;97.30;;;;;;5156753;27;19930;-65
2022/01/17 14:16:40;;;;;;;;;;;13.80;97.40;;;;;;5138293;27;19923;-64
2022/01/17 14:19:07;;;;;;;;;;;13.90;97.40;;;;;;5156049;27;20288;-65
2022/01/17 14:21:38;;;;;;;;;;;14.20;97.50;;;;;;5156720;27;19941;-65
2022/01/17 14:24:10;;;;;;;;;;;14.20;97.50;;;;;;5156472;27;19923;-64
2022/01/17 14:26:36;;;;;;;;;;;14.30;97.60;;;;;;5156588;27;19923;-64
2022/01/17 14:29:02;;;;;;;;;;;13.90;97.60;;;;;;5156560;27;20372;-64
2022/01/17 14:31:31;;;;;;;;;;;13.90;97.60;;;;;;5156214;27;19946;-65
2022/01/17 14:34:12;;;;;;;;;;;14.00;97.60;;;;;;5156683;27;19933;-65
2022/01/17 14:36:38;;;;;;;;;;;14.10;97.70;;;;;;5156104;27;19930;-65
2022/01/17 14:39:05;;;;;;;;;;;14.20;97.60;;;;;;5156040;27;20010;-64
2022/01/17 14:41:36;;;;;;;;;;;14.10;97.60;;;;;;5156107;27;19923;-65
2022/01/17 14:44:05;;;;;;;;;;;14.10;97.60;;;;;;5138245;27;19919;-64
2022/01/17 14:46:31;;;;;;;;;;;14.00;97.60;;;;;;5156285;27;20292;-65
2022/01/17 14:48:57;;;;;;;;;;;14.20;97.70;;;;;;5156648;27;19929;-65